Time;durP1;ratioP1;P1;durP2;ratioP2;P2;SDS_P1;SDS_P2;PMS_P1;PMS_P2;Temp;Humidity;BMP_temperature;BMP_pressure;BME280_temperature;BME280_humidity;BME280_pressure;Samples;Min_cycle;Max_cycle;Signal;HPM_P1;HPM_P2
2022/01/24 05:30:55;;;;;;;;;42.50;33.00;;;;;5.89;62.44;102737.94;5103159;27;45755;-72
2022/01/24 05:33:21;;;;;;;;;37.00;25.75;;;;;5.85;62.88;102733.47;5096774;27;45266;-70
2022/01/24 05:35:47;;;;;;;;;35.75;30.25;;;;;5.84;62.77;102726.38;5095866;27;45305;-70
2022/01/24 05:38:12;;;;;;;;;37.25;26.50;;;;;5.86;62.72;102729.94;5095309;27;46299;-70
2022/01/24 05:40:39;;;;;;;;;37.00;24.50;;;;;5.87;62.50;102729.06;5096350;27;45357;-71
2022/01/24 05:43:06;;;;;;;;;37.25;29.50;;;;;5.84;62.80;102729.03;5078110;27;45441;-72
2022/01/24 05:45:33;;;;;;;;;33.00;31.00;;;;;5.79;62.13;102709.47;5078160;27;45477;-70
2022/01/24 05:47:58;;;;;;;;;32.00;26.50;;;;;5.87;62.94;102718.41;5096093;27;45524;-71
2022/01/24 05:50:23;;;;;;;;;40.75;27.00;;;;;5.82;62.73;102706.84;5096354;27;45451;-71
2022/01/24 05:52:49;;;;;;;;;33.50;28.25;;;;;5.81;62.71;102719.25;5077707;27;45433;-70
2022/01/24 05:55:14;;;;;;;;;40.75;33.00;;;;;5.85;63.12;102720.16;5095354;27;45429;-71
2022/01/24 05:57:40;;;;;;;;;37.00;30.00;;;;;5.85;62.31;102718.41;5095629;27;46017;-70
2022/01/24 06:00:08;;;;;;;;;33.50;30.00;;;;;5.84;62.76;102729.03;5096246;27;45635;-70
2022/01/24 06:02:34;;;;;;;;;39.50;29.25;;;;;5.80;62.42;102722.78;5096199;27;45396;-73
2022/01/24 06:04:59;;;;;;;;;43.50;30.50;;;;;5.82;62.69;102725.47;5096086;27;45597;-71
2022/01/24 06:07:24;;;;;;;;;32.00;29.50;;;;;5.80;62.88;102725.44;5095973;27;45331;-71
2022/01/24 06:09:50;;;;;;;;;30.50;26.50;;;;;5.71;63.03;102704.09;5098690;27;45357;-77
2022/01/24 06:12:15;;;;;;;;;31.75;28.00;;;;;5.74;63.06;102709.47;5102125;27;45248;-70
2022/01/24 06:14:41;;;;;;;;;38.25;31.00;;;;;5.78;63.02;102721.91;5077219;27;45631;-70
2022/01/24 06:17:06;;;;;;;;;34.25;28.50;;;;;5.71;63.01;102706.78;5095676;27;46046;-73
2022/01/24 06:19:31;;;;;;;;;27.75;24.25;;;;;5.78;62.99;102731.66;5095957;27;45373;-74
2022/01/24 06:21:57;;;;;;;;;38.50;30.75;;;;;5.74;62.49;102713.88;5095859;27;45349;-74
2022/01/24 06:24:22;;;;;;;;;39.25;32.00;;;;;5.71;62.61;102717.41;5095331;27;45393;-73
2022/01/24 06:26:48;;;;;;;;;40.75;30.50;;;;;5.76;62.75;102725.44;5096028;27;46032;-72
2022/01/24 06:29:13;;;;;;;;;35.25;32.50;;;;;5.72;62.72;102728.06;5095950;27;45488;-71
2022/01/24 06:31:39;;;;;;;;;37.25;30.50;;;;;5.73;62.93;102731.63;5094843;27;45221;-72
2022/01/24 06:34:05;;;;;;;;;28.50;25.50;;;;;5.74;63.07;102740.50;5095283;27;45388;-70
2022/01/24 06:36:31;;;;;;;;;35.25;29.75;;;;;5.70;62.58;102728.94;5095490;27;45539;-71
2022/01/24 06:38:57;;;;;;;;;41.25;29.00;;;;;5.66;62.96;102730.72;5095253;27;45335;-70
2022/01/24 06:41:28;;;;;;;;;32.50;31.00;;;;;5.66;62.56;102738.69;5095534;27;45305;-70
2022/01/24 06:43:54;;;;;;;;;36.50;28.75;;;;;5.64;62.82;102739.56;5095398;27;46592;-71
2022/01/24 06:46:19;;;;;;;;;41.50;30.00;;;;;5.59;62.64;102746.63;5095421;27;45364;-72
2022/01/24 06:48:44;;;;;;;;;40.50;32.00;;;;;5.54;62.99;102732.38;5095278;27;45302;-72
2022/01/24 06:51:10;;;;;;;;;47.75;36.00;;;;;5.55;62.93;102743.03;5095192;27;45400;-71
2022/01/24 06:53:41;;;;;;;;;34.50;29.25;;;;;5.55;63.48;102747.47;5076224;27;46627;-72
2022/01/24 06:56:07;;;;;;;;;51.25;35.00;;;;;5.42;63.17;102734.97;5095128;27;45954;-74
2022/01/24 06:58:33;;;;;;;;;33.75;29.25;;;;;5.45;63.38;102745.63;5095183;27;45377;-74
2022/01/24 07:00:59;;;;;;;;;35.75;31.75;;;;;5.46;63.92;102750.06;5095163;27;45421;-70
2022/01/24 07:03:24;;;;;;;;;47.75;33.50;;;;;5.45;63.68;102743.84;5095066;27;45385;-70
2022/01/24 07:05:49;;;;;;;;;42.75;38.25;;;;;5.44;63.89;102742.09;5095169;27;46821;-70
2022/01/24 07:08:15;;;;;;;;;32.50;27.25;;;;;5.38;63.90;102730.50;5094925;27;45281;-70
2022/01/24 07:10:40;;;;;;;;;42.00;34.75;;;;;5.42;63.93;102740.31;5102401;27;45895;-71
2022/01/24 07:13:05;;;;;;;;;42.25;32.00;;;;;5.51;64.14;102751.91;5094908;27;45546;-71
2022/01/24 07:15:35;;;;;;;;;37.25;30.75;;;;;5.52;63.85;102743.03;5094500;27;45855;-71
2022/01/24 07:20:35;;;;;;;;;18.50;18.50;;;;;5.51;63.91;102733.28;5097790;27;45371;-68
2022/01/24 07:23:00;;;;;;;;;35.00;29.50;;;;;5.64;63.23;102751.09;5098136;27;45801;-68
2022/01/24 07:25:26;;;;;;;;;43.25;37.25;;;;;5.61;63.17;102745.72;5098947;27;45776;-69
2022/01/24 07:27:51;;;;;;;;;39.75;33.50;;;;;5.56;62.86;102735.97;5094522;27;45478;-69
2022/01/24 07:30:16;;;;;;;;;39.75;29.50;;;;;5.65;62.99;102752.88;5092723;27;46718;-72
2022/01/24 07:32:42;;;;;;;;;37.00;29.25;;;;;5.59;62.95;102750.19;5096780;27;45378;-69
2022/01/24 07:35:08;;;;;;;;;40.25;29.75;;;;;5.60;63.20;102754.63;5097869;27;46233;-70
2022/01/24 07:37:33;;;;;;;;;43.00;35.50;;;;;5.55;63.25;102744.81;5101757;27;45432;-70
2022/01/24 07:39:59;;;;;;;;;34.25;27.25;;;;;5.58;63.04;102740.41;5095920;27;45329;-68
2022/01/24 07:42:39;;;;;;;;;40.75;34.75;;;;;5.61;63.17;102752.84;5096961;27;45582;-69
2022/01/24 07:45:05;;;;;;;;;40.50;32.00;;;;;5.63;63.14;102749.31;5097444;27;45629;-70
2022/01/24 07:47:30;;;;;;;;;32.50;27.50;;;;;5.63;62.94;102759.06;5098760;27;45464;-69
2022/01/24 07:49:55;;;;;;;;;38.00;32.50;;;;;5.60;62.93;102743.09;5097676;27;45360;-70
2022/01/24 07:52:21;;;;;;;;;40.50;28.75;;;;;5.63;62.82;102751.97;5098036;27;45424;-69
2022/01/24 07:54:46;;;;;;;;;36.25;32.00;;;;;5.54;62.85;102727.97;5097210;27;46495;-69
2022/01/24 07:57:11;;;;;;;;;38.50;33.75;;;;;5.65;62.46;102758.19;5097179;27;45572;-69
2022/01/24 07:59:37;;;;;;;;;50.50;34.50;;;;;5.61;62.70;102756.38;5098951;27;45725;-69
2022/01/24 08:02:03;;;;;;;;;43.50;35.50;;;;;5.65;62.82;102762.63;5097439;27;45543;-69
2022/01/24 08:04:28;;;;;;;;;44.25;35.75;;;;;5.65;62.84;102768.84;5079020;27;46319;-68
2022/01/24 08:06:54;;;;;;;;;41.25;32.50;;;;;5.63;62.77;102773.25;5097597;27;45483;-70
2022/01/24 08:09:19;;;;;;;;;39.75;29.25;;;;;5.55;62.82;102753.69;5097122;27;45342;-71
2022/01/24 08:11:44;;;;;;;;;44.25;33.75;;;;;5.61;62.87;102767.03;5105620;27;45322;-69
2022/01/24 08:14:10;;;;;;;;;36.50;32.75;;;;;5.55;63.04;102755.47;5096811;27;46162;-69
2022/01/24 08:16:37;;;;;;;;;46.00;29.75;;;;;5.60;62.79;102765.28;5097286;27;45460;-69
2022/01/24 08:19:03;;;;;;;;;44.50;33.25;;;;;5.54;63.08;102757.22;5097203;27;45496;-69
2022/01/24 08:21:28;;;;;;;;;34.75;28.50;;;;;5.64;62.94;102766.16;5078765;27;45757;-69
2022/01/24 08:23:55;;;;;;;;;44.50;34.25;;;;;5.54;63.10;102756.34;5096238;27;47181;-69
2022/01/24 08:26:21;;;;;;;;;42.00;32.00;;;;;5.67;62.75;102779.50;5096883;27;45390;-68
2022/01/24 08:28:47;;;;;;;;;42.25;33.75;;;;;5.52;62.68;102753.69;5111353;27;45369;-70
2022/01/24 08:31:12;;;;;;;;;40.50;34.75;;;;;5.68;62.49;102790.16;5096682;27;45415;-69
2022/01/24 08:33:37;;;;;;;;;32.25;25.00;;;;;5.70;62.83;102782.16;5096697;27;45331;-70
2022/01/24 08:36:04;;;;;;;;;39.75;34.00;;;;;5.71;62.52;102784.84;5096824;27;45413;-69
2022/01/24 08:38:33;;;;;;;;;46.25;35.50;;;;;5.74;62.45;102788.41;5096382;27;45535;-72
2022/01/24 08:41:05;;;;;;;;;41.50;33.00;;;;;5.75;62.56;102784.88;5097084;27;45409;-68
2022/01/24 08:43:49;;;;;;;;;37.25;31.75;;;;;5.77;62.05;102788.44;5096996;27;45968;-70
2022/01/24 08:46:16;;;;;;;;;41.25;33.25;;;;;5.78;62.13;102791.13;5096733;27;45265;-70
2022/01/24 08:48:46;;;;;;;;;40.50;35.25;;;;;5.79;62.44;102791.97;5096711;27;45393;-70
2022/01/24 08:51:11;;;;;;;;;38.75;33.75;;;;;5.76;61.99;102784.00;5096509;27;45357;-69
2022/01/24 08:53:37;;;;;;;;;39.50;33.00;;;;;5.78;61.85;102784.91;5095808;27;46006;-70
2022/01/24 08:56:05;;;;;;;;;29.75;27.75;;;;;5.71;61.78;102779.50;5096534;27;45436;-73
2022/01/24 08:58:33;;;;;;;;;38.00;30.25;;;;;5.75;62.25;102793.75;5097060;27;45552;-69
2022/01/24 09:00:58;;;;;;;;;44.25;37.00;;;;;5.71;62.74;102782.19;5096734;27;45353;-71
2022/01/24 09:03:25;;;;;;;;;34.50;32.75;;;;;5.76;62.50;102782.22;5096314;27;45461;-68
2022/01/24 09:05:56;;;;;;;;;35.00;32.50;;;;;5.82;62.19;102782.25;5096519;27;45555;-68
2022/01/24 09:08:22;;;;;;;;;34.00;29.75;;;;;5.82;61.92;102790.25;5096985;27;45392;-68
2022/01/24 09:10:50;;;;;;;;;38.50;34.50;;;;;5.77;62.44;102781.34;5104889;27;45975;-68
2022/01/24 09:13:15;;;;;;;;;38.50;28.75;;;;;5.83;62.00;102792.03;5097000;27;45734;-68
2022/01/24 09:15:41;;;;;;;;;44.50;37.25;;;;;5.87;62.06;102795.59;5078295;27;45391;-68
2022/01/24 09:18:07;;;;;;;;;38.50;31.00;;;;;5.85;62.36;102792.94;5101009;27;45456;-68
2022/01/24 09:20:34;;;;;;;;;30.00;26.50;;;;;5.86;61.87;102786.72;5096023;27;45311;-68
2022/01/24 09:23:00;;;;;;;;;44.25;37.50;;;;;5.98;62.32;102804.56;5096255;27;45543;-69
2022/01/24 09:25:26;;;;;;;;;49.00;41.67;;;;;6.00;62.26;102802.81;5096055;27;45191;-74
2022/01/24 09:27:51;;;;;;;;;40.50;36.00;;;;;5.97;62.13;102793.03;5095484;27;45463;-69
2022/01/24 09:30:19;;;;;;;;;39.00;37.50;;;;;6.06;61.55;102797.50;5096020;27;45300;-70
2022/01/24 09:32:45;;;;;;;;;43.50;33.00;;;;;6.03;61.89;102782.44;5096266;27;45423;-69
2022/01/24 09:35:11;;;;;;;;;39.25;35.50;;;;;6.00;61.36;102773.53;5096091;27;45376;-70
2022/01/24 09:37:39;;;;;;;;;36.75;32.00;;;;;6.15;61.51;102800.22;5095515;27;45417;-69
2022/01/24 09:40:06;;;;;;;;;46.25;37.75;;;;;6.20;61.87;102806.47;5096172;27;45457;-69
2022/01/24 09:42:32;;;;;;;;;44.75;34.25;;;;;6.22;61.07;102803.78;5095582;27;46058;-69
2022/01/24 09:44:57;;;;;;;;;41.00;36.25;;;;;6.21;61.22;102796.72;5096102;27;45396;-71
2022/01/24 09:47:23;;;;;;;;;35.75;29.75;;;;;6.19;61.30;102782.50;5099739;27;45364;-69
2022/01/24 09:49:49;;;;;;;;;43.75;36.25;;;;;6.31;61.28;102799.41;5096895;27;45594;-69
2022/01/24 09:52:16;;;;;;;;;43.00;33.50;;;;;6.29;60.74;102795.88;5096205;27;46029;-69
2022/01/24 09:54:41;;;;;;;;;41.50;29.25;;;;;6.39;60.44;102807.44;5095507;27;45429;-70
2022/01/24 09:57:07;;;;;;;;;46.00;34.75;;;;;6.40;60.57;102806.53;5096358;27;45368;-69
2022/01/24 09:59:32;;;;;;;;;48.25;37.25;;;;;6.36;60.57;102799.44;5095650;27;45560;-70
2022/01/24 10:01:58;;;;;;;;;52.25;37.75;;;;;6.43;60.87;102810.13;5095194;27;46028;-69
2022/01/24 10:04:26;;;;;;;;;40.25;33.50;;;;;6.45;60.69;102803.03;5095399;27;45341;-69
2022/01/24 10:07:00;;;;;;;;;38.75;29.25;;;;;6.50;60.62;102797.72;5095836;27;45496;-69
2022/01/24 10:09:31;;;;;;;;;43.75;37.00;;;;;6.51;60.07;102798.59;5094800;27;45333;-69
2022/01/24 10:12:18;;;;;;;;;47.00;36.50;;;;;6.57;60.08;102801.28;5076760;27;46174;-68
2022/01/24 10:17:37;;;;;;;;;41.00;37.75;;;;;6.66;60.19;102795.97;5095766;27;45353;-69
2022/01/24 10:20:22;;;;;;;;;51.50;35.00;;;;;6.65;60.01;102792.44;5094705;27;45319;-68
2022/01/24 10:23:24;;;;;;;;;58.50;38.00;;;;;6.74;60.25;102800.44;5095159;27;45649;-69
2022/01/24 10:26:04;;;;;;;;;41.00;32.50;;;;;6.79;59.53;102792.47;5096467;27;45348;-69
2022/01/24 10:28:31;;;;;;;;;41.00;35.25;;;;;6.83;59.50;102800.47;5089781;27;45302;-71
2022/01/24 10:31:05;;;;;;;;;48.75;35.25;;;;;6.87;59.26;102796.06;5095358;27;45429;-71
2022/01/24 10:33:49;;;;;;;;;42.50;35.25;;;;;6.90;59.41;102793.38;5079152;27;46937;-70
2022/01/24 10:36:25;;;;;;;;;43.00;33.50;;;;;6.94;59.10;102799.63;5105533;27;45373;-70
2022/01/24 10:38:55;;;;;;;;;49.50;33.75;;;;;6.97;58.96;102783.63;5095199;27;45362;-72
2022/01/24 10:41:28;;;;;;;;;38.50;30.00;;;;;7.09;59.09;102788.97;5094756;27;45388;-69
2022/01/24 10:43:56;;;;;;;;;42.75;30.75;;;;;7.07;58.34;102775.63;5076562;27;46676;-70
2022/01/24 10:46:27;;;;;;;;;27.25;22.25;;;;;7.18;58.82;102788.97;5094760;27;45590;-69
2022/01/24 10:49:07;;;;;;;;;37.50;33.00;;;;;7.25;58.76;102779.19;5095031;27;45579;-67
2022/01/24 10:51:45;;;;;;;;;36.25;30.00;;;;;7.34;58.40;102781.88;5094392;27;45385;-69
2022/01/24 10:54:14;;;;;;;;;31.75;28.75;;;;;7.35;57.72;102762.31;5094594;27;45382;-69
2022/01/24 10:56:44;;;;;;;;;38.50;29.00;;;;;7.43;58.20;102777.41;5094882;27;45434;-70
2022/01/24 10:59:21;;;;;;;;;33.75;32.75;;;;;7.47;57.73;102765.88;5094466;27;45478;-70
2022/01/24 11:01:51;;;;;;;;;36.50;30.75;;;;;7.53;57.07;102755.19;5093144;27;46093;-70
2022/01/24 11:04:17;;;;;;;;;26.00;25.75;;;;;7.60;56.89;102761.38;5083022;27;45506;-72
2022/01/24 11:06:46;;;;;;;;;28.00;25.50;;;;;7.63;56.89;102760.50;5094870;27;45655;-71
2022/01/24 11:09:25;;;;;;;;;32.75;29.75;;;;;7.71;56.90;102764.94;5105569;27;45630;-71
2022/01/24 11:12:12;;;;;;;;;34.25;31.25;;;;;7.81;57.21;102763.16;5102670;27;45311;-71
2022/01/24 11:14:43;;;;;;;;;30.25;28.00;;;;;7.87;56.61;102750.66;5082061;27;45411;-72
2022/01/24 11:17:13;;;;;;;;;34.25;28.00;;;;;8.06;57.00;102751.50;5076401;27;46051;-71
2022/01/24 11:19:46;;;;;;;;;37.75;29.50;;;;;8.22;57.10;102744.31;5093502;27;45318;-72
2022/01/24 11:22:20;;;;;;;;;35.50;31.50;;;;;8.37;55.55;102736.25;5105861;27;45364;-71
2022/01/24 11:25:23;;;;;;;;;41.25;32.50;;;;;8.56;55.13;102745.94;5094324;27;47310;-69
2022/01/24 11:27:44;;;;;;;;;36.00;31.00;;;;;8.79;53.86;102731.53;5090433;27;45587;-78
2022/01/24 11:30:14;;;;;;;;;44.00;32.25;;;;;9.50;53.54;102741.66;5094588;27;45298;-73
2022/01/24 11:32:58;;;;;;;;;37.75;32.50;;;;;10.60;50.82;102739.47;5094246;27;45504;-69
2022/01/24 11:35:45;;;;;;;;;40.25;29.25;;;;;12.29;47.38;102724.84;5093912;27;45198;-70
2022/01/24 11:38:38;;;;;;;;;32.50;31.25;;;;;13.89;43.61;102725.34;5094280;27;45396;-68
2022/01/24 11:41:12;;;;;;;;;36.50;32.50;;;;;15.28;40.93;102724.66;5094535;27;45329;-68
2022/01/24 11:43:41;;;;;;;;;35.75;30.00;;;;;16.49;37.92;102711.19;5094327;27;45468;-69
2022/01/24 11:46:45;;;;;;;;;40.00;33.50;;;;;17.67;35.83;102710.78;5094257;27;46103;-68
2022/01/24 11:49:21;;;;;;;;;37.50;33.00;;;;;18.70;33.78;102706.94;5094388;27;45436;-68
2022/01/24 11:51:50;;;;;;;;;34.75;30.75;;;;;19.38;32.17;102706.19;5094104;27;45326;-69
2022/01/24 11:57:25;;;;;;;;;38.75;31.50;;;;;20.43;29.86;102708.72;5094185;27;45490;-69
2022/01/24 12:00:04;;;;;;;;;30.25;27.75;;;;;20.72;29.51;102702.50;5094287;27;45395;-70
2022/01/24 12:02:51;;;;;;;;;35.75;31.00;;;;;20.95;29.32;102698.44;5094146;27;45344;-74
2022/01/24 12:05:25;;;;;;;;;32.75;30.25;;;;;21.01;27.82;102692.59;5093121;27;45586;-67
2022/01/24 12:07:56;;;;;;;;;33.00;31.00;;;;;20.46;28.93;102681.31;5093936;27;45318;-71
2022/01/24 12:10:26;;;;;;;;;31.50;29.25;;;;;19.60;30.03;102701.41;5102145;27;45496;-70
2022/01/24 12:13:01;;;;;;;;;39.25;33.75;;;;;18.63;31.53;102709.03;5098381;27;45972;-69
2022/01/24 12:15:36;;;;;;;;;21.75;19.50;;;;;17.62;32.77;102701.06;5096876;27;45470;-68
2022/01/24 12:18:06;;;;;;;;;36.75;31.00;;;;;16.71;34.37;102694.09;5097667;27;46628;-70
2022/01/24 12:20:32;;;;;;;;;37.25;31.25;;;;;15.98;35.79;102705.06;5097438;27;45442;-67
2022/01/24 12:23:15;;;;;;;;;45.00;36.00;;;;;15.24;37.29;102714.84;5097298;27;45344;-68
2022/01/24 12:26:02;;;;;;;;;40.75;33.00;;;;;14.58;38.54;102708.03;5095837;27;45444;-67
2022/01/24 12:28:42;;;;;;;;;35.00;26.00;;;;;14.05;39.39;102709.59;5097496;27;46020;-66
2022/01/24 12:31:28;;;;;;;;;37.25;32.00;;;;;13.49;40.40;102695.03;5096398;27;45481;-67
2022/01/24 12:33:53;;;;;;;;;32.25;32.25;;;;;13.16;41.11;102703.09;5097028;27;45548;-68
2022/01/24 12:36:48;;;;;;;;;41.75;33.75;;;;;12.79;42.19;102702.16;5097168;27;45447;-67
2022/01/24 12:39:13;;;;;;;;;46.00;33.75;;;;;12.50;42.80;102713.63;5096812;27;46385;-69
2022/01/24 12:41:46;;;;;;;;;40.50;33.50;;;;;12.22;43.04;102705.28;5078170;27;45295;-68
2022/01/24 12:46:57;;;;;;;;;45.25;33.50;;;;;11.69;45.59;102709.00;5064821;27;46311;-73
2022/01/24 12:49:23;;;;;;;;;38.75;32.00;;;;;11.50;44.66;102710.25;5096896;27;46580;-74
2022/01/24 12:51:49;;;;;;;;;38.00;33.50;;;;;11.33;45.84;102689.09;5096736;27;45298;-70
2022/01/24 12:54:16;;;;;;;;;33.25;29.00;;;;;11.25;46.33;102707.13;5096563;27;45502;-69
2022/01/24 12:56:42;;;;;;;;;33.50;29.00;;;;;11.10;46.19;102693.97;5077980;27;46700;-69
2022/01/24 12:59:08;;;;;;;;;27.25;25.25;;;;;11.03;46.56;102695.88;5096801;27;45982;-70
2022/01/24 13:01:37;;;;;;;;;33.25;33.00;;;;;10.94;46.66;102696.94;5094778;27;45404;-67
2022/01/24 13:04:10;;;;;;;;;35.75;32.50;;;;;10.78;46.91;102695.41;5103636;27;45522;-66
2022/01/24 13:06:39;;;;;;;;;47.50;39.00;;;;;10.69;46.88;102687.50;5106194;27;45342;-67
2022/01/24 13:09:15;;;;;;;;;38.00;34.50;;;;;10.63;47.08;102703.69;5098326;27;46185;-67
2022/01/24 13:12:09;;;;;;;;;32.00;29.25;;;;;10.54;47.41;102703.81;5098135;27;45481;-66
2022/01/24 13:14:50;;;;;;;;;32.75;23.75;;;;;10.46;48.19;102695.00;5093589;27;45804;-66
2022/01/24 13:25:28;;;;;;;;;25.25;23.50;;;;;10.31;47.67;102682.69;5095900;27;45376;-67
2022/01/24 13:28:08;;;;;;;;;37.25;29.00;;;;;10.26;47.70;102680.97;5096457;27;45318;-69
2022/01/24 13:30:46;;;;;;;;;24.75;22.00;;;;;10.21;48.27;102679.22;5077424;27;46961;-67
2022/01/24 13:33:16;;;;;;;;;38.25;30.50;;;;;10.18;48.53;102681.97;5099018;27;45523;-68
2022/01/24 13:35:50;;;;;;;;;39.50;29.25;;;;;10.15;48.30;102667.69;5096012;27;45356;-68
2022/01/24 13:38:18;;;;;;;;;38.75;29.25;;;;;10.16;48.49;102673.03;5095531;27;46051;-67
2022/01/24 13:41:04;;;;;;;;;27.75;21.50;;;;;10.16;48.90;102666.78;5095900;27;45448;-68
2022/01/24 13:43:37;;;;;;;;;30.25;24.50;;;;;10.02;49.02;102650.88;5095811;27;45508;-66
2022/01/24 13:46:24;;;;;;;;;31.25;26.75;;;;;10.09;48.88;102671.34;5096274;27;45419;-67
2022/01/24 13:48:57;;;;;;;;;31.25;25.25;;;;;10.10;49.73;102664.19;5095986;27;45316;-68
2022/01/24 13:51:39;;;;;;;;;31.00;25.00;;;;;10.11;49.39;102671.31;5094981;27;45931;-67
2022/01/24 13:54:07;;;;;;;;;34.75;31.00;;;;;10.10;49.34;102666.88;5095779;27;45570;-70
2022/01/24 13:56:43;;;;;;;;;31.75;25.00;;;;;10.11;49.59;102668.63;5095600;27;45408;-68
2022/01/24 13:59:19;;;;;;;;;35.75;28.75;;;;;10.12;49.42;102671.28;5095606;27;45592;-71
2022/01/24 14:02:04;;;;;;;;;34.00;28.75;;;;;10.08;49.46;102656.16;5095654;27;45486;-68
2022/01/24 14:04:40;;;;;;;;;36.25;32.25;;;;;10.13;49.78;102669.47;5095566;27;45423;-67
2022/01/24 14:07:20;;;;;;;;;37.25;24.75;;;;;10.13;48.87;102670.38;5095256;27;45528;-68
2022/01/24 14:09:49;;;;;;;;;32.50;29.00;;;;;10.04;49.22;102653.53;5097653;27;45285;-66
2022/01/24 14:12:29;;;;;;;;;40.50;26.00;;;;;10.18;49.23;102668.56;5101464;27;45468;-67
2022/01/24 14:15:04;;;;;;;;;30.00;28.50;;;;;10.26;48.84;102672.94;5095446;27;45404;-68
2022/01/24 14:17:37;;;;;;;;;29.25;22.00;;;;;10.23;49.29;102665.81;5095374;27;45324;-68
2022/01/24 14:20:15;;;;;;;;;26.00;22.75;;;;;10.35;49.17;102681.75;5095557;27;45499;-67
2022/01/24 14:22:53;;;;;;;;;31.75;29.25;;;;;10.47;48.91;102681.53;5094494;27;47104;-68
2022/01/24 14:25:26;;;;;;;;;32.50;27.00;;;;;10.94;48.55;102669.19;5094997;27;45343;-67
2022/01/24 14:28:10;;;;;;;;;38.25;31.25;;;;;11.75;46.47;102658.75;5096032;27;45334;-68
2022/01/24 14:30:42;;;;;;;;;28.00;27.25;;;;;12.71;44.84;102671.88;5095013;27;45983;-68
2022/01/24 14:33:11;;;;;;;;;29.50;27.75;;;;;13.52;43.40;102673.41;5094582;27;46076;-67
2022/01/24 14:36:17;;;;;;;;;27.50;26.25;;;;;14.16;41.45;102671.53;5094903;27;45365;-67
2022/01/24 14:38:44;;;;;;;;;31.75;25.75;;;;;14.65;40.60;102679.91;5094822;27;45428;-68
2022/01/24 14:41:18;;;;;;;;;29.50;27.75;;;;;15.02;38.80;102681.41;5094675;27;45408;-67
2022/01/24 14:46:36;;;;;;;;;33.25;28.75;;;;;15.54;37.89;102663.41;5095167;27;45400;-66
2022/01/24 14:49:07;;;;;;;;;29.25;24.00;;;;;15.73;37.59;102656.41;5077027;27;45334;-66
2022/01/24 14:51:35;;;;;;;;;25.50;21.50;;;;;15.86;36.95;102663.13;5094155;27;45513;-65
2022/01/24 14:54:08;;;;;;;;;24.25;23.25;;;;;15.86;37.16;102655.00;5076096;27;45326;-68
2022/01/24 14:56:36;;;;;;;;;23.25;21.25;;;;;15.92;36.47;102662.00;5100719;27;45483;-68
2022/01/24 14:59:03;;;;;;;;;29.75;24.75;;;;;15.83;37.45;102653.28;5095196;27;45494;-69
2022/01/24 15:01:28;;;;;;;;;23.00;20.25;;;;;15.91;36.28;102663.81;5094701;27;45337;-70
2022/01/24 15:03:55;;;;;;;;;32.50;25.25;;;;;15.86;36.41;102660.41;5094726;27;46078;-68
2022/01/24 15:06:21;;;;;;;;;17.00;15.50;;;;;15.84;36.49;102671.28;5094404;27;45382;-68
2022/01/24 15:08:50;;;;;;;;;23.50;19.50;;;;;15.78;36.93;102666.09;5094170;27;45586;-68
2022/01/24 15:11:19;;;;;;;;;20.75;18.50;;;;;15.74;36.81;102663.56;5080811;27;46474;-68
2022/01/24 15:13:56;;;;;;;;;22.25;20.75;;;;;15.63;36.55;102660.38;5087306;27;45352;-67
2022/01/24 15:16:32;;;;;;;;;23.00;18.25;;;;;15.54;36.56;102660.72;5094636;27;45419;-67
2022/01/24 15:27:06;;;;;;;;;21.00;21.00;;;;;14.86;38.14;102699.06;5094508;27;45561;-69
2022/01/24 15:29:31;;;;;;;;;23.75;20.75;;;;;14.60;38.90;102692.69;5094668;27;45495;-68
2022/01/24 15:32:02;;;;;;;;;24.25;21.25;;;;;14.39;39.27;102694.22;5097784;27;45521;-69
2022/01/24 15:34:27;;;;;;;;;27.50;27.50;;;;;14.13;39.15;102682.41;5094073;27;46616;-67
2022/01/24 15:36:53;;;;;;;;;28.00;25.00;;;;;14.02;39.99;102694.44;5094251;27;45426;-68
2022/01/24 15:39:18;;;;;;;;;35.00;25.50;;;;;13.83;40.28;102703.06;5075696;27;45341;-67
2022/01/24 15:42:10;;;;;;;;;29.25;25.75;;;;;13.62;40.86;102701.84;5094138;27;45368;-69
2022/01/24 15:44:47;;;;;;;;;31.25;25.25;;;;;13.38;41.41;102706.09;5094150;27;45983;-69
2022/01/24 15:49:46;;;;;;;;;30.25;27.25;;;;;12.84;43.04;102706.50;5097529;27;45359;-72
2022/01/24 15:52:13;;;;;;;;;29.25;27.50;;;;;12.64;43.00;102714.19;5097470;27;45404;-68
2022/01/24 15:54:42;;;;;;;;;33.00;28.00;;;;;12.49;43.49;102723.50;5097258;27;46167;-70
2022/01/24 15:59:51;;;;;;;;;29.75;26.75;;;;;12.10;44.31;102714.47;5097799;27;45405;-69
2022/01/24 16:02:16;;;;;;;;;32.25;26.25;;;;;11.96;44.73;102723.75;5097339;27;45337;-71
2022/01/24 16:04:42;;;;;;;;;28.25;25.00;;;;;11.76;45.22;102710.69;5097568;27;45415;-67
2022/01/24 16:07:08;;;;;;;;;31.00;27.25;;;;;11.63;45.81;102726.16;5097185;27;45367;-68
2022/01/24 16:09:33;;;;;;;;;31.00;28.00;;;;;11.49;46.22;102716.53;5097133;27;45362;-67
2022/01/24 16:11:58;;;;;;;;;30.75;28.00;;;;;11.41;46.33;102723.84;5105164;27;45508;-69
2022/01/24 16:14:25;;;;;;;;;29.75;25.75;;;;;11.27;46.79;102726.78;5095615;27;46114;-72
2022/01/24 16:16:50;;;;;;;;;30.50;21.75;;;;;11.21;47.31;102726.91;5096875;27;45418;-70
2022/01/24 16:19:17;;;;;;;;;26.50;23.75;;;;;11.12;47.72;102736.00;5096893;27;45440;-71
2022/01/24 16:21:59;;;;;;;;;27.50;25.50;;;;;10.97;47.42;102718.31;5095835;27;45512;-72
2022/01/24 16:26:56;;;;;;;;;27.75;21.00;;;;;10.86;47.81;102728.38;5097602;27;45657;-71
2022/01/24 16:29:22;;;;;;;;;28.75;25.00;;;;;10.78;48.12;102729.38;5096445;27;45366;-70
2022/01/24 16:31:48;;;;;;;;;25.00;23.00;;;;;10.69;48.65;102726.84;5095580;27;45489;-70
2022/01/24 16:34:14;;;;;;;;;26.75;23.25;;;;;10.64;48.99;102732.25;5096460;27;45482;-72
2022/01/24 16:36:40;;;;;;;;;34.25;26.25;;;;;10.44;49.51;102703.06;5096607;27;45627;-72
2022/01/24 16:39:07;;;;;;;;;34.00;31.50;;;;;10.51;49.61;102719.94;5095637;27;45315;-71
2022/01/24 16:49:31;;;;;;;;;39.75;30.25;;;;;10.20;51.14;102717.69;5097144;27;45355;-70
2022/01/24 16:51:58;;;;;;;;;30.50;25.50;;;;;10.19;50.96;102720.38;5096823;27;45534;-72
2022/01/24 16:54:26;;;;;;;;;32.50;29.00;;;;;10.15;50.77;102730.22;5096712;27;46377;-71
2022/01/24 16:56:53;;;;;;;;;30.50;29.50;;;;;10.08;51.58;102719.59;5097007;27;45357;-72
2022/01/24 16:59:19;;;;;;;;;29.75;26.25;;;;;10.06;51.58;102733.00;5097432;27;45262;-70
2022/01/24 17:01:45;;;;;;;;;33.00;27.00;;;;;10.01;51.39;102742.91;5097074;27;45468;-70
2022/01/24 17:04:10;;;;;;;;;34.25;32.25;;;;;9.93;52.01;102734.06;5097106;27;46045;-71
2022/01/24 17:06:37;;;;;;;;;40.00;31.75;;;;;9.91;52.37;102745.69;5097196;27;45492;-70
2022/01/24 17:09:05;;;;;;;;;32.50;30.75;;;;;9.72;52.52;102718.22;5096717;27;45478;-72
2022/01/24 17:11:31;;;;;;;;;33.75;31.50;;;;;9.82;53.00;102749.34;5105734;27;45468;-72
2022/01/24 17:13:59;;;;;;;;;31.25;27.75;;;;;9.72;52.67;102735.19;5096720;27;45452;-75
2022/01/24 17:16:30;;;;;;;;;33.75;29.00;;;;;9.74;53.04;102736.06;5096939;27;45350;-74
2022/01/24 17:18:56;;;;;;;;;36.25;33.00;;;;;9.75;53.30;102740.50;5096991;27;45508;-72
2022/01/24 17:21:22;;;;;;;;;33.00;31.00;;;;;9.79;52.88;102744.03;5097106;27;45516;-69
2022/01/24 17:23:47;;;;;;;;;31.75;29.75;;;;;9.80;53.75;102744.00;5096152;27;45277;-68
2022/01/24 17:26:13;;;;;;;;;31.00;29.75;;;;;9.73;53.37;102736.06;5097077;27;45365;-71
2022/01/24 17:28:38;;;;;;;;;35.75;31.25;;;;;9.77;53.19;102744.06;5096405;27;45459;-70
2022/01/24 17:31:03;;;;;;;;;36.75;30.00;;;;;9.73;53.36;102741.41;5096174;27;45411;-69
2022/01/24 17:33:30;;;;;;;;;38.25;30.50;;;;;9.72;53.66;102742.31;5096419;27;45947;-70
2022/01/24 17:35:57;;;;;;;;;40.25;33.50;;;;;9.59;53.88;102713.91;5096240;27;45341;-70
2022/01/24 17:38:23;;;;;;;;;32.25;27.00;;;;;9.69;53.88;102737.91;5096042;27;45553;-71
2022/01/24 17:40:48;;;;;;;;;31.75;29.50;;;;;9.70;53.77;102736.09;5096433;27;45487;-70
2022/01/24 17:43:14;;;;;;;;;34.75;33.50;;;;;9.68;54.17;102738.81;5096175;27;45373;-71